Terminal Aerodrome Forecast
Issued by NWS

Home | Current Version | Previous Version | Text Only | Print | Product List | Glossary On
Versions: 1 2 3 4 5 6 7 8 9 10 11 12 13 14 15 16 17 18 19
000
FTUS44 KBMX 192300
TAFTCL
TAF
KTCL 192340Z 2000/2024 02003KT P6SM -RA OVC100
     FM200300 02003KT 5SM -RA BR OVC035
     FM201100 01003KT P6SM BKN050
     FM201600 36004KT P6SM SCT080=

USA.gov is the U.S. government's official web portal to all federal, state and local government web resources and services.